sensor_id;sensor_type;location;lat;lon;timestamp;pressure;altitude;pressure_sealevel;temperature;humidity
58373;BME280;44177;43.356;27.672;2023-02-01T00:01:32;97969.13;;;3.16;63.74
58373;BME280;44177;43.356;27.672;2023-02-01T00:03:58;97972.66;;;3.16;63.55
58373;BME280;44177;43.356;27.672;2023-02-01T00:06:23;97970.25;;;3.15;63.80
58373;BME280;44177;43.356;27.672;2023-02-01T00:08:52;97976.44;;;3.15;63.92
58373;BME280;44177;43.356;27.672;2023-02-01T00:11:17;97969.44;;;3.14;63.91
58373;BME280;44177;43.356;27.672;2023-02-01T00:13:43;97964.88;;;3.15;63.89
58373;BME280;44177;43.356;27.672;2023-02-01T00:16:11;97970.53;;;3.13;63.83
58373;BME280;44177;43.356;27.672;2023-02-01T00:18:41;97966.25;;;3.12;63.96
58373;BME280;44177;43.356;27.672;2023-02-01T00:21:07;97948.91;;;3.05;63.95
58373;BME280;44177;43.356;27.672;2023-02-01T00:23:35;97970.53;;;3.13;63.91
58373;BME280;44177;43.356;27.672;2023-02-01T00:26:05;97967.84;;;3.13;63.87
58373;BME280;44177;43.356;27.672;2023-02-01T00:28:31;97969.94;;;3.16;63.78
58373;BME280;44177;43.356;27.672;2023-02-01T00:31:02;97967.25;;;3.16;63.81
58373;BME280;44177;43.356;27.672;2023-02-01T00:33:28;97978.03;;;3.16;63.72
58373;BME280;44177;43.356;27.672;2023-02-01T00:36:02;97965.47;;;3.12;63.87
58373;BME280;44177;43.356;27.672;2023-02-01T00:38:29;97981.50;;;3.17;63.72
58373;BME280;44177;43.356;27.672;2023-02-01T00:41:02;97983.44;;;3.16;63.69
58373;BME280;44177;43.356;27.672;2023-02-01T00:43:27;97986.13;;;3.16;63.73
58373;BME280;44177;43.356;27.672;2023-02-01T00:45:53;97986.13;;;3.16;63.83
58373;BME280;44177;43.356;27.672;2023-02-01T00:48:18;97988.00;;;3.16;63.92
58373;BME280;44177;43.356;27.672;2023-02-01T00:50:44;97982.59;;;3.16;63.71
58373;BME280;44177;43.356;27.672;2023-02-01T00:53:10;97982.31;;;3.18;63.74
58373;BME280;44177;43.356;27.672;2023-02-01T00:55:36;97979.63;;;3.18;63.81
58373;BME280;44177;43.356;27.672;2023-02-01T00:58:02;97993.13;;;3.18;63.68
58373;BME280;44177;43.356;27.672;2023-02-01T01:00:28;97992.28;;;3.17;63.73
58373;BME280;44177;43.356;27.672;2023-02-01T01:02:54;97989.31;;;3.19;63.81
58373;BME280;44177;43.356;27.672;2023-02-01T01:05:20;97989.31;;;3.19;63.73
58373;BME280;44177;43.356;27.672;2023-02-01T01:07:45;97990.41;;;3.18;63.63
58373;BME280;44177;43.356;27.672;2023-02-01T01:10:10;97986.63;;;3.19;63.65
58373;BME280;44177;43.356;27.672;2023-02-01T01:12:36;97985.81;;;3.18;63.64
58373;BME280;44177;43.356;27.672;2023-02-01T01:15:02;97981.22;;;3.19;63.65
58373;BME280;44177;43.356;27.672;2023-02-01T01:17:27;97981.22;;;3.19;63.72
58373;BME280;44177;43.356;27.672;2023-02-01T01:19:53;97980.09;;;3.20;63.68
58373;BME280;44177;43.356;27.672;2023-02-01T01:22:18;97976.63;;;3.19;63.70
58373;BME280;44177;43.356;27.672;2023-02-01T01:24:44;97966.94;;;3.18;63.62
58373;BME280;44177;43.356;27.672;2023-02-01T01:27:09;97964.25;;;3.18;63.60
58373;BME280;44177;43.356;27.672;2023-02-01T01:29:35;97963.47;;;3.18;63.72
58373;BME280;44177;43.356;27.672;2023-02-01T01:32:01;97969.63;;;3.18;63.70
58373;BME280;44177;43.356;27.672;2023-02-01T01:34:26;97974.25;;;3.18;63.61
58373;BME280;44177;43.356;27.672;2023-02-01T01:36:52;97960.25;;;3.15;63.72
58373;BME280;44177;43.356;27.672;2023-02-01T01:39:17;97966.94;;;3.18;63.72
58373;BME280;44177;43.356;27.672;2023-02-01T01:41:43;97960.44;;;3.19;63.62
58373;BME280;44177;43.356;27.672;2023-02-01T01:47:11;97968.84;;;3.18;63.78
58373;BME280;44177;43.356;27.672;2023-02-01T01:49:39;97963.47;;;3.18;63.77
58373;BME280;44177;43.356;27.672;2023-02-01T01:52:05;97960.25;;;3.15;63.59
58373;BME280;44177;43.356;27.672;2023-02-01T01:54:51;97972.34;;;3.18;63.63
58373;BME280;44177;43.356;27.672;2023-02-01T01:57:23;97968.84;;;3.18;63.72
58373;BME280;44177;43.356;27.672;2023-02-01T02:00:03;97971.53;;;3.18;63.74
58373;BME280;44177;43.356;27.672;2023-02-01T02:02:30;97971.53;;;3.18;63.68
58373;BME280;44177;43.356;27.672;2023-02-01T02:04:56;97964.88;;;3.15;63.64
58373;BME280;44177;43.356;27.672;2023-02-01T02:07:27;97966.16;;;3.18;63.61
58373;BME280;44177;43.356;27.672;2023-02-01T02:09:54;97961.03;;;3.16;63.74
58373;BME280;44177;43.356;27.672;2023-02-01T02:12:20;97961.03;;;3.16;63.80
58373;BME280;44177;43.356;27.672;2023-02-01T02:14:46;97968.03;;;3.17;63.74
58373;BME280;44177;43.356;27.672;2023-02-01T02:28:03;97977.34;;;3.11;63.70
58373;BME280;44177;43.356;27.672;2023-02-01T02:36:30;97976.06;;;3.08;63.76
58373;BME280;44177;43.356;27.672;2023-02-01T02:50:05;97962.88;;;3.07;63.82
58373;BME280;44177;43.356;27.672;2023-02-01T02:53:06;97970.97;;;3.07;64.04
58373;BME280;44177;43.356;27.672;2023-02-01T02:55:54;97970.16;;;3.06;63.83
58373;BME280;44177;43.356;27.672;2023-02-01T02:58:40;97962.88;;;3.07;63.79
58373;BME280;44177;43.356;27.672;2023-02-01T03:01:25;97970.97;;;3.07;63.91
58373;BME280;44177;43.356;27.672;2023-02-01T03:04:09;97967.47;;;3.06;63.88
58373;BME280;44177;43.356;27.672;2023-02-01T03:06:39;97970.16;;;3.06;63.84
58373;BME280;44177;43.356;27.672;2023-02-01T03:09:10;97978.25;;;3.06;63.94
58373;BME280;44177;43.356;27.672;2023-02-01T03:11:40;97973.66;;;3.07;63.78
58373;BME280;44177;43.356;27.672;2023-02-01T03:14:27;97970.16;;;3.06;63.83
58373;BME280;44177;43.356;27.672;2023-02-01T03:17:03;97968.28;;;3.07;63.73
58373;BME280;44177;43.356;27.672;2023-02-01T03:19:40;97964.78;;;3.06;63.88
58373;BME280;44177;43.356;27.672;2023-02-01T03:22:15;97966.69;;;3.06;63.99
58373;BME280;44177;43.356;27.672;2023-02-01T03:24:45;97959.00;;;2.99;63.88
58373;BME280;44177;43.356;27.672;2023-02-01T03:29:45;97969.88;;;3.08;63.97
58373;BME280;44177;43.356;27.672;2023-02-01T03:32:13;97963.97;;;3.06;63.87
58373;BME280;44177;43.356;27.672;2023-02-01T03:34:39;97972.06;;;3.06;63.85
58373;BME280;44177;43.356;27.672;2023-02-01T03:37:09;97989.03;;;3.06;63.85
58373;BME280;44177;43.356;27.672;2023-02-01T03:42:21;97999.81;;;3.06;63.78
58373;BME280;44177;43.356;27.672;2023-02-01T03:47:29;97997.13;;;3.06;63.75
58373;BME280;44177;43.356;27.672;2023-02-01T03:50:01;97991.72;;;3.06;63.90
58373;BME280;44177;43.356;27.672;2023-02-01T03:52:32;97996.81;;;3.08;63.68
58373;BME280;44177;43.356;27.672;2023-02-01T03:55:02;98005.81;;;3.03;63.90
58373;BME280;44177;43.356;27.672;2023-02-01T03:57:34;97991.22;;;3.04;63.63
58373;BME280;44177;43.356;27.672;2023-02-01T04:00:17;97989.84;;;3.07;63.84
58373;BME280;44177;43.356;27.672;2023-02-01T04:02:43;97987.94;;;3.07;63.77
58373;BME280;44177;43.356;27.672;2023-02-01T04:05:09;97991.44;;;3.08;63.79
58373;BME280;44177;43.356;27.672;2023-02-01T04:07:34;97990.63;;;3.07;63.81
58373;BME280;44177;43.356;27.672;2023-02-01T04:10:00;97996.00;;;3.07;63.75
58373;BME280;44177;43.356;27.672;2023-02-01T04:12:25;97987.22;;;3.02;63.82
58373;BME280;44177;43.356;27.672;2023-02-01T04:14:50;97998.72;;;3.07;63.81
58373;BME280;44177;43.356;27.672;2023-02-01T04:17:17;97999.81;;;3.06;63.58
58373;BME280;44177;43.356;27.672;2023-02-01T04:19:43;97999.81;;;3.06;63.68
58373;BME280;44177;43.356;27.672;2023-02-01T04:22:09;98007.91;;;3.06;63.75
58373;BME280;44177;43.356;27.672;2023-02-01T04:24:34;98005.19;;;3.06;63.78
58373;BME280;44177;43.356;27.672;2023-02-01T04:27:01;97997.81;;;2.98;63.84
58373;BME280;44177;43.356;27.672;2023-02-01T04:29:28;98009.81;;;3.06;63.76
58373;BME280;44177;43.356;27.672;2023-02-01T04:31:53;98004.22;;;3.02;63.68
58373;BME280;44177;43.356;27.672;2023-02-01T04:34:19;98006.00;;;3.07;63.82
58373;BME280;44177;43.356;27.672;2023-02-01T04:36:44;98018.66;;;3.06;63.80
58373;BME280;44177;43.356;27.672;2023-02-01T04:39:10;98003.59;;;3.05;63.91
58373;BME280;44177;43.356;27.672;2023-02-01T04:41:35;98010.59;;;3.06;63.82
58373;BME280;44177;43.356;27.672;2023-02-01T04:44:01;98006.28;;;3.05;63.74
58373;BME280;44177;43.356;27.672;2023-02-01T04:46:26;98022.47;;;3.05;63.94
58373;BME280;44177;43.356;27.672;2023-02-01T04:48:52;98021.38;;;3.06;63.93
58373;BME280;44177;43.356;27.672;2023-02-01T04:51:17;98023.28;;;3.06;63.84
58373;BME280;44177;43.356;27.672;2023-02-01T04:53:44;98031.38;;;3.06;63.78
58373;BME280;44177;43.356;27.672;2023-02-01T04:56:09;98037.53;;;3.06;63.88
58373;BME280;44177;43.356;27.672;2023-02-01T04:58:35;98022.06;;;2.98;63.74
58373;BME280;44177;43.356;27.672;2023-02-01T05:01:04;98039.72;;;3.04;63.92
58373;BME280;44177;43.356;27.672;2023-02-01T05:03:31;98036.75;;;3.06;63.92
58373;BME280;44177;43.356;27.672;2023-02-01T05:05:57;98035.16;;;3.05;63.87
58373;BME280;44177;43.356;27.672;2023-02-01T05:08:22;98047.53;;;3.06;63.86
58373;BME280;44177;43.356;27.672;2023-02-01T05:10:48;98042.16;;;3.06;64.02
58373;BME280;44177;43.356;27.672;2023-02-01T05:13:13;98049.41;;;3.05;63.84
58373;BME280;44177;43.356;27.672;2023-02-01T05:15:58;98041.31;;;3.05;63.84
58373;BME280;44177;43.356;27.672;2023-02-01T05:18:23;98050.50;;;3.04;63.58
58373;BME280;44177;43.356;27.672;2023-02-01T05:20:49;98051.63;;;3.03;63.71
58373;BME280;44177;43.356;27.672;2023-02-01T05:23:14;98051.91;;;3.02;63.66
58373;BME280;44177;43.356;27.672;2023-02-01T05:25:39;98058.13;;;3.02;63.56
58373;BME280;44177;43.356;27.672;2023-02-01T05:28:05;98057.31;;;3.02;63.56
58373;BME280;44177;43.356;27.672;2023-02-01T05:30:30;98064.09;;;2.99;63.47
58373;BME280;44177;43.356;27.672;2023-02-01T05:32:57;98063.00;;;3.00;63.59
58373;BME280;44177;43.356;27.672;2023-02-01T05:35:23;98054.91;;;3.00;63.73
58373;BME280;44177;43.356;27.672;2023-02-01T05:37:48;98049.53;;;3.00;63.64
58373;BME280;44177;43.356;27.672;2023-02-01T05:40:14;98056.00;;;2.99;63.60
58373;BME280;44177;43.356;27.672;2023-02-01T05:42:39;98058.72;;;2.99;63.68
58373;BME280;44177;43.356;27.672;2023-02-01T05:45:05;98056.00;;;2.99;63.66
58373;BME280;44177;43.356;27.672;2023-02-01T05:47:32;98063.00;;;3.00;63.76
58373;BME280;44177;43.356;27.672;2023-02-01T05:49:58;98071.09;;;3.00;63.64
58373;BME280;44177;43.356;27.672;2023-02-01T05:52:23;98059.81;;;2.98;63.56
58373;BME280;44177;43.356;27.672;2023-02-01T05:54:49;98070.31;;;2.99;63.45
58373;BME280;44177;43.356;27.672;2023-02-01T05:57:15;98065.19;;;2.98;63.53
58373;BME280;44177;43.356;27.672;2023-02-01T05:59:41;98064.72;;;2.96;63.64
58373;BME280;44177;43.356;27.672;2023-02-01T06:02:07;98071.66;;;2.97;63.58
58373;BME280;44177;43.356;27.672;2023-02-01T06:04:33;98077.88;;;2.97;63.66
58373;BME280;44177;43.356;27.672;2023-02-01T06:06:59;98070.59;;;2.98;63.61
58373;BME280;44177;43.356;27.672;2023-02-01T06:09:24;98074.88;;;2.99;63.51
58373;BME280;44177;43.356;27.672;2023-02-01T06:11:50;98086.47;;;2.99;63.56
58373;BME280;44177;43.356;27.672;2023-02-01T06:14:15;98084.56;;;3.00;63.60
58373;BME280;44177;43.356;27.672;2023-02-01T06:16:41;98082.38;;;3.02;63.47
58373;BME280;44177;43.356;27.672;2023-02-01T06:19:06;98085.06;;;3.02;63.39
58373;BME280;44177;43.356;27.672;2023-02-01T06:21:31;98078.88;;;3.02;63.38
58373;BME280;44177;43.356;27.672;2023-02-01T06:23:58;98083.47;;;3.01;63.42
58373;BME280;44177;43.356;27.672;2023-02-01T06:26:24;98078.06;;;3.01;63.37
58373;BME280;44177;43.356;27.672;2023-02-01T06:28:50;98078.06;;;3.01;63.33
58373;BME280;44177;43.356;27.672;2023-02-01T06:31:15;98064.72;;;2.96;63.39
58373;BME280;44177;43.356;27.672;2023-02-01T06:33:41;98085.06;;;3.02;63.35
58373;BME280;44177;43.356;27.672;2023-02-01T06:36:09;98080.78;;;3.01;63.21
58373;BME280;44177;43.356;27.672;2023-02-01T06:38:35;98081.28;;;3.03;63.21
58373;BME280;44177;43.356;27.672;2023-02-01T06:41:01;98083.97;;;3.03;63.15
58373;BME280;44177;43.356;27.672;2023-02-01T06:43:27;98080.16;;;3.04;63.25
58373;BME280;44177;43.356;27.672;2023-02-01T06:45:59;98091.44;;;3.06;63.09
58373;BME280;44177;43.356;27.672;2023-02-01T06:48:25;98095.22;;;3.05;63.08
58373;BME280;44177;43.356;27.672;2023-02-01T06:50:51;98089.56;;;3.07;63.31
58373;BME280;44177;43.356;27.672;2023-02-01T06:53:16;98093.88;;;3.08;63.14
58373;BME280;44177;43.356;27.672;2023-02-01T06:55:54;98095.75;;;3.07;63.17
58373;BME280;44177;43.356;27.672;2023-02-01T06:58:20;98093.03;;;3.07;63.31
58373;BME280;44177;43.356;27.672;2023-02-01T07:00:45;98094.66;;;3.08;63.27
58373;BME280;44177;43.356;27.672;2023-02-01T07:03:11;98087.06;;;3.10;63.39
58373;BME280;44177;43.356;27.672;2023-02-01T07:05:36;98085.97;;;3.11;63.47
58373;BME280;44177;43.356;27.672;2023-02-01T07:08:01;98082.97;;;3.13;63.46
58373;BME280;44177;43.356;27.672;2023-02-01T07:10:27;98078.66;;;3.12;63.41
58373;BME280;44177;43.356;27.672;2023-02-01T07:12:56;98084.84;;;3.12;63.54
58373;BME280;44177;43.356;27.672;2023-02-01T07:15:22;98090.25;;;3.12;63.63
58373;BME280;44177;43.356;27.672;2023-02-01T07:17:48;98086.44;;;3.13;63.70
58373;BME280;44177;43.356;27.672;2023-02-01T07:20:15;98090.75;;;3.14;63.64
58373;BME280;44177;43.356;27.672;2023-02-01T07:22:40;98091.84;;;3.13;63.67
58373;BME280;44177;43.356;27.672;2023-02-01T07:25:06;98096.44;;;3.13;63.93
58373;BME280;44177;43.356;27.672;2023-02-01T07:27:34;98095.03;;;3.15;63.53
58373;BME280;44177;43.356;27.672;2023-02-01T07:30:00;98104.72;;;3.16;63.38
58373;BME280;44177;43.356;27.672;2023-02-01T07:32:28;98111.72;;;3.18;63.43
58373;BME280;44177;43.356;27.672;2023-02-01T07:34:53;98113.31;;;3.19;63.51
58373;BME280;44177;43.356;27.672;2023-02-01T07:37:19;98117.59;;;3.20;63.35
58373;BME280;44177;43.356;27.672;2023-02-01T07:39:44;98117.59;;;3.20;63.31
58373;BME280;44177;43.356;27.672;2023-02-01T07:42:10;98108.41;;;3.21;63.49
58373;BME280;44177;43.356;27.672;2023-02-01T07:44:35;98119.69;;;3.23;63.32
58373;BME280;44177;43.356;27.672;2023-02-01T07:47:01;98117.00;;;3.23;63.25
58373;BME280;44177;43.356;27.672;2023-02-01T07:49:26;98115.91;;;3.24;63.17
58373;BME280;44177;43.356;27.672;2023-02-01T07:51:52;98122.09;;;3.24;63.14
58373;BME280;44177;43.356;27.672;2023-02-01T07:54:17;98106.81;;;3.20;63.22
58373;BME280;44177;43.356;27.672;2023-02-01T07:56:43;98113.22;;;3.24;63.09
58373;BME280;44177;43.356;27.672;2023-02-01T07:59:08;98115.31;;;3.27;63.15
58373;BME280;44177;43.356;27.672;2023-02-01T08:01:34;98111.03;;;3.26;63.03
58373;BME280;44177;43.356;27.672;2023-02-01T08:04:01;98105.00;;;3.29;63.06
58373;BME280;44177;43.356;27.672;2023-02-01T08:06:29;98103.22;;;3.24;63.19
58373;BME280;44177;43.356;27.672;2023-02-01T08:08:56;98115.53;;;3.30;63.16
58373;BME280;44177;43.356;27.672;2023-02-01T08:11:23;98117.59;;;3.34;63.12
58373;BME280;44177;43.356;27.672;2023-02-01T08:13:49;98113.81;;;3.35;63.35
58373;BME280;44177;43.356;27.672;2023-02-01T08:16:16;98111.63;;;3.37;63.35
58373;BME280;44177;43.356;27.672;2023-02-01T08:18:42;98113.03;;;3.34;63.51
58373;BME280;44177;43.356;27.672;2023-02-01T08:21:13;98128.78;;;3.41;63.36
58373;BME280;44177;43.356;27.672;2023-02-01T08:23:40;98124.69;;;3.43;63.40
58373;BME280;44177;43.356;27.672;2023-02-01T08:26:17;98126.00;;;3.46;63.25
58373;BME280;44177;43.356;27.672;2023-02-01T08:28:47;98131.59;;;3.50;63.20
58373;BME280;44177;43.356;27.672;2023-02-01T08:31:15;98133.66;;;3.53;63.31
58373;BME280;44177;43.356;27.672;2023-02-01T08:33:42;98134.75;;;3.52;63.18
58373;BME280;44177;43.356;27.672;2023-02-01T08:36:10;98130.97;;;3.53;63.12
58373;BME280;44177;43.356;27.672;2023-02-01T08:38:37;98144.97;;;3.55;62.99
58373;BME280;44177;43.356;27.672;2023-02-01T08:41:12;98144.75;;;3.51;62.86
58373;BME280;44177;43.356;27.672;2023-02-01T08:43:38;98138.59;;;3.51;62.75
58373;BME280;44177;43.356;27.672;2023-02-01T08:46:04;98147.78;;;3.50;62.82
58373;BME280;44177;43.356;27.672;2023-02-01T08:48:30;98149.97;;;3.47;62.64
58373;BME280;44177;43.356;27.672;2023-02-01T08:50:56;98144.38;;;3.44;62.67
58373;BME280;44177;43.356;27.672;2023-02-01T08:53:22;98144.38;;;3.44;62.72
58373;BME280;44177;43.356;27.672;2023-02-01T08:55:47;98151.66;;;3.43;62.71
58373;BME280;44177;43.356;27.672;2023-02-01T08:58:13;98141.66;;;3.44;62.60
58373;BME280;44177;43.356;27.672;2023-02-01T09:00:40;98141.56;;;3.63;62.22
58373;BME280;44177;43.356;27.672;2023-02-01T09:03:09;98139.44;;;4.10;61.02
58373;BME280;44177;43.356;27.672;2023-02-01T09:05:35;98137.84;;;4.55;59.62
58373;BME280;44177;43.356;27.672;2023-02-01T09:08:00;98135.56;;;4.94;58.66
58373;BME280;44177;43.356;27.672;2023-02-01T09:10:26;98130.25;;;5.20;57.70
58373;BME280;44177;43.356;27.672;2023-02-01T09:12:51;98118.75;;;5.54;56.57
58373;BME280;44177;43.356;27.672;2023-02-01T09:15:17;98113.38;;;5.90;55.63
58373;BME280;44177;43.356;27.672;2023-02-01T09:17:42;98117.88;;;6.21;54.64
58373;BME280;44177;43.356;27.672;2023-02-01T09:20:09;98112.59;;;6.51;53.87
58373;BME280;44177;43.356;27.672;2023-02-01T09:22:34;98094.38;;;6.69;53.07
58373;BME280;44177;43.356;27.672;2023-02-01T09:25:00;98116.97;;;6.90;52.43
58373;BME280;44177;43.356;27.672;2023-02-01T09:27:25;98108.63;;;7.04;52.28
58373;BME280;44177;43.356;27.672;2023-02-01T09:29:51;98113.72;;;6.58;52.92
58373;BME280;44177;43.356;27.672;2023-02-01T09:32:22;98108.00;;;6.16;53.84
58373;BME280;44177;43.356;27.672;2023-02-01T09:34:52;98114.47;;;6.68;53.10
58373;BME280;44177;43.356;27.672;2023-02-01T09:37:18;98099.47;;;6.79;52.50
58373;BME280;44177;43.356;27.672;2023-02-01T09:39:44;98103.69;;;6.50;53.17
58373;BME280;44177;43.356;27.672;2023-02-01T09:47:47;98090.13;;;6.24;53.32
58373;BME280;44177;43.356;27.672;2023-02-01T09:50:21;98085.53;;;5.98;54.33
58373;BME280;44177;43.356;27.672;2023-02-01T09:55:46;98079.13;;;5.67;55.28
58373;BME280;44177;43.356;27.672;2023-02-01T09:58:38;98064.13;;;5.44;55.85
58373;BME280;44177;43.356;27.672;2023-02-01T10:01:23;98071.25;;;5.31;56.24
58373;BME280;44177;43.356;27.672;2023-02-01T10:03:51;98070.31;;;5.27;56.57
58373;BME280;44177;43.356;27.672;2023-02-01T10:06:33;98071.69;;;5.15;56.83
58373;BME280;44177;43.356;27.672;2023-02-01T10:12:11;98056.44;;;5.19;56.95
58373;BME280;44177;43.356;27.672;2023-02-01T10:20:10;98051.66;;;5.08;57.17
58373;BME280;44177;43.356;27.672;2023-02-01T10:22:45;98048.47;;;5.14;57.05
58373;BME280;44177;43.356;27.672;2023-02-01T10:25:24;98039.56;;;5.14;57.10
58373;BME280;44177;43.356;27.672;2023-02-01T10:27:51;98025.44;;;5.34;56.75
58373;BME280;44177;43.356;27.672;2023-02-01T10:32:43;98029.78;;;5.71;55.52
58373;BME280;44177;43.356;27.672;2023-02-01T10:35:22;98023.09;;;5.77;55.46
58373;BME280;44177;43.356;27.672;2023-02-01T10:37:49;98019.91;;;6.01;55.05
58373;BME280;44177;43.356;27.672;2023-02-01T10:40:19;98010.00;;;6.14;54.41
58373;BME280;44177;43.356;27.672;2023-02-01T10:42:47;98020.66;;;6.28;53.99
58373;BME280;44177;43.356;27.672;2023-02-01T10:45:19;98008.69;;;6.38;53.75
58373;BME280;44177;43.356;27.672;2023-02-01T10:47:47;98008.97;;;6.45;53.48
58373;BME280;44177;43.356;27.672;2023-02-01T10:55:52;98021.00;;;6.18;53.72
58373;BME280;44177;43.356;27.672;2023-02-01T10:58:26;98021.34;;;6.16;53.82
58373;BME280;44177;43.356;27.672;2023-02-01T11:01:04;98012.09;;;5.91;54.37
58373;BME280;44177;43.356;27.672;2023-02-01T11:06:01;98017.03;;;5.62;55.15
58373;BME280;44177;43.356;27.672;2023-02-01T11:08:28;98014.00;;;5.46;55.53
58373;BME280;44177;43.356;27.672;2023-02-01T11:10:59;98013.03;;;5.33;56.08
58373;BME280;44177;43.356;27.672;2023-02-01T11:13:30;98021.44;;;5.23;56.36
58373;BME280;44177;43.356;27.672;2023-02-01T11:15:57;98012.34;;;5.10;56.82
58373;BME280;44177;43.356;27.672;2023-02-01T11:18:35;98021.56;;;5.00;57.20
58373;BME280;44177;43.356;27.672;2023-02-01T11:21:02;98020.72;;;4.91;57.56
58373;BME280;44177;43.356;27.672;2023-02-01T11:23:30;98006.56;;;4.85;57.68
58373;BME280;44177;43.356;27.672;2023-02-01T11:29:13;98001.25;;;4.71;58.31
58373;BME280;44177;43.356;27.672;2023-02-01T11:31:43;97999.03;;;4.65;58.59
58373;BME280;44177;43.356;27.672;2023-02-01T11:34:17;97988.84;;;4.62;58.69
58373;BME280;44177;43.356;27.672;2023-02-01T11:36:46;97988.31;;;4.51;58.69
58373;BME280;44177;43.356;27.672;2023-02-01T11:42:19;97996.41;;;4.51;59.03
58373;BME280;44177;43.356;27.672;2023-02-01T11:44:45;97993.22;;;4.49;59.10
58373;BME280;44177;43.356;27.672;2023-02-01T11:47:27;97984.16;;;4.45;59.34
58373;BME280;44177;43.356;27.672;2023-02-01T11:49:55;97985.25;;;4.43;59.35
58373;BME280;44177;43.356;27.672;2023-02-01T12:09:09;97999.53;;;4.35;59.95
58373;BME280;44177;43.356;27.672;2023-02-01T12:22:04;97987.72;;;4.31;59.97
58373;BME280;44177;43.356;27.672;2023-02-01T12:35:28;97970.56;;;4.27;60.48
58373;BME280;44177;43.356;27.672;2023-02-01T12:38:01;97971.34;;;4.27;60.54
58373;BME280;44177;43.356;27.672;2023-02-01T12:43:38;97956.41;;;4.21;60.65
58373;BME280;44177;43.356;27.672;2023-02-01T12:46:13;97950.22;;;4.21;60.50
58373;BME280;44177;43.356;27.672;2023-02-01T12:49:01;97958.50;;;4.24;60.69
58373;BME280;44177;43.356;27.672;2023-02-01T12:51:40;97950.38;;;4.24;60.84
58373;BME280;44177;43.356;27.672;2023-02-01T12:54:57;97958.78;;;4.23;60.76
58373;BME280;44177;43.356;27.672;2023-02-01T12:57:30;97949.13;;;4.22;60.96
58373;BME280;44177;43.356;27.672;2023-02-01T13:03:15;97941.63;;;4.19;60.73
58373;BME280;44177;43.356;27.672;2023-02-01T13:08:14;97945.78;;;4.25;60.67
58373;BME280;44177;43.356;27.672;2023-02-01T13:11:06;97959.28;;;4.25;60.96
58373;BME280;44177;43.356;27.672;2023-02-01T13:13:44;97951.16;;;4.25;61.00
58373;BME280;44177;43.356;27.672;2023-02-01T13:22:06;97947.19;;;4.22;61.09
58373;BME280;44177;43.356;27.672;2023-02-01T13:24:43;97941.00;;;4.22;60.84
58373;BME280;44177;43.356;27.672;2023-02-01T13:27:15;97954.50;;;4.22;60.92
58373;BME280;44177;43.356;27.672;2023-02-01T13:29:49;97957.22;;;4.22;60.97
58373;BME280;44177;43.356;27.672;2023-02-01T13:38:52;97961.00;;;4.21;61.00
58373;BME280;44177;43.356;27.672;2023-02-01T13:41:31;97965.13;;;4.18;61.09
58373;BME280;44177;43.356;27.672;2023-02-01T13:44:05;97957.81;;;4.19;61.17
58373;BME280;44177;43.356;27.672;2023-02-01T13:46:40;97941.09;;;4.08;61.16
58373;BME280;44177;43.356;27.672;2023-02-01T13:49:12;97968.44;;;4.15;61.21
58373;BME280;44177;43.356;27.672;2023-02-01T13:51:45;97965.25;;;4.13;61.17
58373;BME280;44177;43.356;27.672;2023-02-01T13:54:30;97969.03;;;4.12;61.08
58373;BME280;44177;43.356;27.672;2023-02-01T13:57:00;97959.34;;;4.11;61.26
58373;BME280;44177;43.356;27.672;2023-02-01T14:05:02;97948.03;;;4.00;61.47
58373;BME280;44177;43.356;27.672;2023-02-01T14:07:28;97954.69;;;4.03;61.59
58373;BME280;44177;43.356;27.672;2023-02-01T14:09:54;97957.41;;;4.03;61.62
58373;BME280;44177;43.356;27.672;2023-02-01T14:12:43;97960.91;;;4.03;61.55
58373;BME280;44177;43.356;27.672;2023-02-01T14:15:20;97957.72;;;4.01;61.54
58373;BME280;44177;43.356;27.672;2023-02-01T14:17:47;97952.31;;;4.01;61.64
58373;BME280;44177;43.356;27.672;2023-02-01T14:20:41;97950.72;;;4.00;61.71
58373;BME280;44177;43.356;27.672;2023-02-01T14:23:20;97940.56;;;3.97;61.56
58373;BME280;44177;43.356;27.672;2023-02-01T14:25:47;97946.75;;;3.98;61.94
58373;BME280;44177;43.356;27.672;2023-02-01T14:28:27;97951.34;;;3.97;61.76
58373;BME280;44177;43.356;27.672;2023-02-01T14:30:56;97950.53;;;3.97;61.85
58373;BME280;44177;43.356;27.672;2023-02-01T14:33:24;97948.94;;;3.95;61.85
58373;BME280;44177;43.356;27.672;2023-02-01T14:36:12;97945.78;;;3.93;62.24
58373;BME280;44177;43.356;27.672;2023-02-01T14:38:39;97961.16;;;3.93;62.07
58373;BME280;44177;43.356;27.672;2023-02-01T14:49:37;97958.59;;;3.88;62.02
58373;BME280;44177;43.356;27.672;2023-02-01T14:52:11;97969.41;;;3.88;62.29
58373;BME280;44177;43.356;27.672;2023-02-01T14:54:39;97961.63;;;3.86;62.18
58373;BME280;44177;43.356;27.672;2023-02-01T14:57:05;97966.19;;;3.86;62.24
58373;BME280;44177;43.356;27.672;2023-02-01T14:59:36;97963.81;;;3.84;62.41
58373;BME280;44177;43.356;27.672;2023-02-01T15:02:02;97971.09;;;3.84;62.46
58373;BME280;44177;43.356;27.672;2023-02-01T15:04:42;97972.22;;;3.83;62.38
58373;BME280;44177;43.356;27.672;2023-02-01T15:07:12;97973.31;;;3.82;62.34
58373;BME280;44177;43.356;27.672;2023-02-01T15:09:43;97959.94;;;3.76;62.45
58373;BME280;44177;43.356;27.672;2023-02-01T15:15:14;97972.81;;;3.79;62.55
58373;BME280;44177;43.356;27.672;2023-02-01T15:17:40;97964.88;;;3.74;62.56
58373;BME280;44177;43.356;27.672;2023-02-01T15:23:01;97973.44;;;3.76;62.48
58373;BME280;44177;43.356;27.672;2023-02-01T15:25:29;97975.34;;;3.76;62.56
58373;BME280;44177;43.356;27.672;2023-02-01T15:27:56;97977.22;;;3.75;62.55
58373;BME280;44177;43.356;27.672;2023-02-01T15:30:27;97972.97;;;3.74;62.54
58373;BME280;44177;43.356;27.672;2023-02-01T15:33:22;97975.66;;;3.74;62.60
58373;BME280;44177;43.356;27.672;2023-02-01T15:35:50;97979.47;;;3.73;62.61
58373;BME280;44177;43.356;27.672;2023-02-01T15:41:07;97987.84;;;3.72;62.74
58373;BME280;44177;43.356;27.672;2023-02-01T15:43:39;97974.97;;;3.69;62.76
58373;BME280;44177;43.356;27.672;2023-02-01T15:46:14;97997.84;;;3.71;62.79